Time;durP1;ratioP1;P1;durP2;ratioP2;P2;SDS_P1;SDS_P2;PMS_P1;PMS_P2;Temp;Humidity;BMP_temperature;BMP_pressure;BME280_temperature;BME280_humidity;BME280_pressure;Samples;Min_cycle;Max_cycle;Signal;HPM_P1;HPM_P2
2021/09/27 00:01:28;;;;;;;9.60;7.65;;;15.20;79.00;;;;;;5079398;28;20050;-86
2021/09/27 00:03:54;;;;;;;8.77;7.88;;;15.30;79.00;;;;;;5096026;28;20135;-86
2021/09/27 00:06:20;;;;;;;10.55;8.43;;;15.20;78.80;;;;;;5062755;28;20028;-86
2021/09/27 00:08:46;;;;;;;8.80;7.90;;;15.20;78.90;;;;;;5096861;28;20028;-86
2021/09/27 00:11:23;;;;;;;9.73;8.00;;;15.20;78.80;;;;;;5097216;28;20024;-86
2021/09/27 00:13:53;;;;;;;10.25;8.25;;;15.20;78.80;;;;;;5097017;28;20114;-86
2021/09/27 00:16:21;;;;;;;9.30;8.07;;;15.20;78.80;;;;;;5098002;28;20417;-86
2021/09/27 00:18:47;;;;;;;8.88;7.85;;;15.20;78.70;;;;;;5080940;28;20035;-87
2021/09/27 00:21:18;;;;;;;9.20;7.53;;;15.20;78.80;;;;;;5078040;28;20036;-88
2021/09/27 00:23:45;;;;;;;10.38;7.70;;;15.20;78.80;;;;;;5049624;28;20430;-87
2021/09/27 00:26:11;;;;;;;10.40;8.35;;;15.20;78.70;;;;;;5095952;28;20032;-87
2021/09/27 00:28:37;;;;;;;10.25;8.07;;;15.20;78.70;;;;;;5078799;28;20040;-87
2021/09/27 00:31:04;;;;;;;9.48;7.72;;;15.20;78.60;;;;;;5097140;28;20028;-87
2021/09/27 00:33:30;;;;;;;9.48;8.48;;;15.20;78.60;;;;;;5098256;28;20032;-87
2021/09/27 00:35:56;;;;;;;10.30;8.05;;;15.20;78.60;;;;;;5062598;28;20028;-87
2021/09/27 00:38:23;;;;;;;10.45;7.82;;;15.20;78.50;;;;;;5076405;28;20068;-87
2021/09/27 00:41:14;;;;;;;10.73;7.97;;;15.20;78.60;;;;;;5102984;28;20028;-86
2021/09/27 00:43:41;;;;;;;10.30;7.75;;;15.20;78.60;;;;;;5085601;28;20087;-87
2021/09/27 00:46:12;;;;;;;9.18;7.55;;;15.20;78.40;;;;;;5079702;28;20027;-86
2021/09/27 00:48:40;;;;;;;9.00;7.88;;;15.10;78.40;;;;;;5097440;28;20118;-87
2021/09/27 00:51:13;;;;;;;8.95;7.95;;;15.10;78.40;;;;;;5061935;28;20032;-87
2021/09/27 00:53:56;;;;;;;9.43;8.43;;;15.20;78.50;;;;;;5048844;28;20119;-86
2021/09/27 00:56:25;;;;;;;12.45;8.07;;;15.10;78.50;;;;;;5048483;28;20494;-87
2021/09/27 00:58:53;;;;;;;8.93;7.45;;;15.10;78.50;;;;;;5096248;28;20089;-87
2021/09/27 01:01:21;;;;;;;10.25;7.78;;;15.10;78.50;;;;;;5095401;28;20126;-86
2021/09/27 01:03:47;;;;;;;10.00;7.90;;;15.10;78.60;;;;;;5097149;28;20115;-86
2021/09/27 01:06:38;;;;;;;9.35;8.05;;;15.10;78.40;;;;;;5096155;28;20032;-87
2021/09/27 01:09:42;;;;;;;11.05;7.82;;;15.10;78.50;;;;;;5068561;28;20410;-85
2021/09/27 01:12:20;;;;;;;8.98;7.68;;;15.10;78.40;;;;;;5004477;28;20040;-87
2021/09/27 01:15:10;;;;;;;8.55;7.60;;;15.10;78.40;;;;;;5009539;28;20034;-87
2021/09/27 01:17:51;;;;;;;8.88;7.35;;;15.10;78.50;;;;;;5051267;28;20051;-87
2021/09/27 01:20:47;;;;;;;9.07;7.88;;;15.10;78.40;;;;;;5067238;28;20032;-87
2021/09/27 01:23:51;;;;;;;10.35;7.72;;;15.00;78.40;;;;;;5052915;28;20093;-87
2021/09/27 01:26:44;;;;;;;9.07;7.85;;;15.10;78.40;;;;;;5092713;28;20031;-86
2021/09/27 01:29:35;;;;;;;9.57;7.60;;;15.10;78.40;;;;;;5077689;28;20043;-87
2021/09/27 01:32:04;;;;;;;9.70;7.90;;;15.10;78.40;;;;;;5077658;28;20027;-87
2021/09/27 01:34:54;;;;;;;11.05;8.48;;;15.10;78.50;;;;;;5117384;28;20077;-87
2021/09/27 01:37:39;;;;;;;8.93;7.53;;;15.00;78.50;;;;;;5104523;28;20040;-87
2021/09/27 01:40:24;;;;;;;9.60;7.78;;;15.00;78.50;;;;;;5077490;28;20036;-87
2021/09/27 01:43:14;;;;;;;8.82;7.63;;;15.00;78.50;;;;;;5049549;28;20054;-86
2021/09/27 01:45:51;;;;;;;9.50;7.70;;;15.00;78.40;;;;;;5094399;28;20031;-86
2021/09/27 01:48:28;;;;;;;9.40;7.97;;;15.00;78.40;;;;;;5066592;28;20473;-86
2021/09/27 01:51:03;;;;;;;9.07;7.72;;;15.00;78.40;;;;;;5060875;28;20035;-86
2021/09/27 01:53:53;;;;;;;9.95;8.27;;;15.00;78.40;;;;;;5095997;28;20042;-86
2021/09/27 01:56:24;;;;;;;8.13;7.25;;;15.00;78.40;;;;;;5076028;28;20036;-86
2021/09/27 01:58:55;;;;;;;9.55;8.13;;;15.00;78.40;;;;;;5061273;28;20036;-85
2021/09/27 02:01:40;;;;;;;9.00;7.55;;;15.00;78.40;;;;;;5077296;28;20040;-85
2021/09/27 02:04:19;;;;;;;9.55;8.55;;;15.00;78.30;;;;;;5077695;28;20102;-85
2021/09/27 02:06:49;;;;;;;9.82;7.47;;;15.00;78.40;;;;;;5077388;28;20040;-86
2021/09/27 02:09:21;;;;;;;8.38;7.47;;;15.00;78.40;;;;;;5063968;28;20115;-87
2021/09/27 02:12:00;;;;;;;12.85;8.48;;;15.00;78.40;;;;;;5069356;28;20031;-87
2021/09/27 02:14:40;;;;;;;8.85;7.07;;;15.00;78.50;;;;;;5061103;28;20039;-87
2021/09/27 02:17:13;;;;;;;9.32;7.20;;;15.00;78.60;;;;;;5049876;28;20040;-87
2021/09/27 02:20:02;;;;;;;9.00;7.70;;;15.00;78.60;;;;;;5076192;28;20039;-86
2021/09/27 02:23:04;;;;;;;10.43;7.90;;;15.00;78.60;;;;;;5058033;28;20040;-85
2021/09/27 02:25:35;;;;;;;9.38;7.75;;;15.00;78.40;;;;;;5062179;28;20498;-84
2021/09/27 02:28:07;;;;;;;9.25;7.95;;;15.00;78.30;;;;;;5071383;28;20100;-85
2021/09/27 02:30:40;;;;;;;8.45;6.97;;;15.00;78.30;;;;;;5096229;28;20032;-86
2021/09/27 02:33:13;;;;;;;9.23;7.35;;;15.00;78.40;;;;;;5069026;28;20036;-85
2021/09/27 02:36:05;;;;;;;10.00;7.93;;;15.00;78.40;;;;;;5081452;28;20040;-87
2021/09/27 02:39:04;;;;;;;11.15;8.05;;;15.00;78.40;;;;;;5065821;28;20068;-87
2021/09/27 02:41:48;;;;;;;7.90;7.07;;;15.00;78.30;;;;;;5052662;28;20036;-87
2021/09/27 02:44:15;;;;;;;7.35;6.60;;;15.00;78.30;;;;;;5051677;28;20039;-86
2021/09/27 02:46:43;;;;;;;8.20;6.68;;;14.90;78.20;;;;;;5079790;28;20032;-85
2021/09/27 02:49:14;;;;;;;7.78;6.82;;;15.00;78.30;;;;;;5098010;28;20525;-86
2021/09/27 02:51:45;;;;;;;9.63;7.10;;;15.00;78.90;;;;;;5051025;28;20032;-87
2021/09/27 02:54:12;;;;;;;9.13;6.43;;;14.90;78.40;;;;;;5064723;28;20043;-86
2021/09/27 02:56:59;;;;;;;7.90;7.10;;;15.00;78.40;;;;;;5081426;28;20043;-88
2021/09/27 02:59:39;;;;;;;7.35;6.25;;;14.90;78.30;;;;;;5081139;28;20102;-85
2021/09/27 03:02:26;;;;;;;8.60;6.30;;;14.90;78.20;;;;;;5078230;28;20033;-84
2021/09/27 03:05:34;;;;;;;6.95;6.25;;;15.00;78.20;;;;;;5067586;28;20047;-85
2021/09/27 03:08:31;;;;;;;7.75;6.35;;;15.00;78.10;;;;;;5065333;28;20055;-85
2021/09/27 03:10:59;;;;;;;;;;;15.00;78.00;;;;;;5049525;28;20035;-85
2021/09/27 03:13:41;;;;;;;6.50;5.43;;;15.00;77.90;;;;;;5060867;28;19916;-85
2021/09/27 03:16:19;;;;;;;7.75;6.03;;;15.00;77.80;;;;;;5057903;28;20117;-85
2021/09/27 03:19:23;;;;;;;7.45;6.03;;;15.00;77.70;;;;;;5077954;28;20037;-87
2021/09/27 03:21:55;;;;;;;7.20;6.50;;;15.00;77.70;;;;;;5072002;28;20040;-87
2021/09/27 03:24:41;;;;;;;6.65;5.63;;;15.00;77.70;;;;;;5089637;28;20028;-85
2021/09/27 03:27:10;;;;;;;;;;;14.90;77.80;;;;;;5010498;28;20038;-86
2021/09/27 03:29:59;;;;;;;7.30;6.05;;;14.90;77.80;;;;;;5010863;28;19917;-87
2021/09/27 03:32:40;;;;;;;9.57;6.30;;;14.90;77.70;;;;;;5054321;28;20050;-87
2021/09/27 03:35:12;;;;;;;9.70;5.72;;;14.90;77.70;;;;;;5079830;28;20028;-88
2021/09/27 03:37:51;;;;;;;6.28;5.55;;;14.90;77.70;;;;;;5081190;28;20125;-87
2021/09/27 03:40:45;;;;;;;6.95;6.22;;;14.90;77.70;;;;;;5089840;28;20032;-88
2021/09/27 03:43:32;;;;;;;7.00;5.68;;;14.90;77.60;;;;;;5067584;28;20044;-86
2021/09/27 03:46:25;;;;;;;8.63;6.90;;;14.90;77.60;;;;;;5076148;28;20032;-86
2021/09/27 03:48:51;;;;;;;7.50;6.55;;;14.90;77.50;;;;;;4999096;28;20060;-87
2021/09/27 03:51:23;;;;;;;7.20;6.47;;;14.90;77.30;;;;;;4991082;28;20516;-87
2021/09/27 03:53:55;;;;;;;8.35;6.97;;;14.90;77.30;;;;;;5037743;28;20036;-88
2021/09/27 03:56:43;;;;;;;8.45;6.53;;;14.90;77.30;;;;;;5057044;28;20172;-88
2021/09/27 03:59:36;;;;;;;7.82;6.07;;;14.90;77.20;;;;;;5067867;28;20033;-88
2021/09/27 04:02:05;;;;;;;6.82;5.53;;;14.90;77.10;;;;;;5065957;28;20047;-86
2021/09/27 04:04:31;;;;;;;6.45;5.55;;;14.90;77.10;;;;;;5081765;28;20459;-87
2021/09/27 04:07:23;;;;;;;9.30;5.55;;;14.90;77.20;;;;;;5076570;28;20067;-89
2021/09/27 04:10:13;;;;;;;6.55;5.03;;;14.90;77.20;;;;;;5073454;28;20403;-87
2021/09/27 04:12:54;;;;;;;5.38;4.78;;;14.90;77.30;;;;;;5073747;28;20032;-86
2021/09/27 04:15:47;;;;;;;9.60;5.13;;;14.80;77.30;;;;;;5079449;28;20170;-86
2021/09/27 04:18:54;;;;;;;6.55;4.65;;;14.90;77.30;;;;;;5100058;28;20036;-86
2021/09/27 04:21:43;;;;;;;5.03;4.00;;;14.90;77.20;;;;;;5082990;28;20135;-87
2021/09/27 04:24:15;;;;;;;7.47;4.95;;;14.90;77.10;;;;;;5113458;28;20036;-87
2021/09/27 04:26:44;;;;;;;5.32;4.60;;;14.90;77.00;;;;;;5098607;28;20275;-87
2021/09/27 04:29:34;;;;;;;5.28;4.65;;;14.90;77.10;;;;;;5080364;28;20119;-86
2021/09/27 04:32:14;;;;;;;6.20;4.60;;;14.90;77.10;;;;;;5097968;28;20116;-89
2021/09/27 04:34:49;;;;;;;7.28;4.65;;;14.90;77.10;;;;;;5097398;28;20032;-87
2021/09/27 04:37:17;;;;;;;14.57;4.75;;;14.90;77.00;;;;;;5096360;28;20032;-85
2021/09/27 04:39:46;;;;;;;7.18;4.50;;;14.90;76.90;;;;;;5066189;28;20040;-84
2021/09/27 04:42:34;;;;;;;7.05;4.30;;;14.90;76.90;;;;;;5097860;28;20028;-87
2021/09/27 04:45:30;;;;;;;4.97;4.30;;;14.90;76.90;;;;;;5097387;28;20119;-85
2021/09/27 04:48:11;;;;;;;5.97;4.05;;;14.90;76.90;;;;;;5097009;28;20027;-88
2021/09/27 04:51:10;;;;;;;5.57;4.28;;;14.90;77.00;;;;;;5095208;28;20032;-87
2021/09/27 04:54:13;;;;;;;5.18;3.45;;;14.80;76.90;;;;;;5065404;28;20119;-88
2021/09/27 04:57:07;;;;;;;4.70;4.13;;;14.90;77.00;;;;;;5095640;28;20561;-87
2021/09/27 05:00:05;;;;;;;5.25;3.75;;;14.90;76.90;;;;;;5078118;28;20028;-88
2021/09/27 05:02:43;;;;;;;5.30;3.67;;;14.90;76.80;;;;;;5047906;28;20040;-86
2021/09/27 05:05:24;;;;;;;6.40;3.80;;;14.90;76.70;;;;;;5065143;28;20585;-87
2021/09/27 05:08:09;;;;;;;4.60;3.67;;;14.90;76.90;;;;;;5049331;28;20047;-89
2021/09/27 05:11:24;;;;;;;5.40;4.15;;;14.90;76.70;;;;;;5078558;28;20047;-90
2021/09/27 05:14:23;;;;;;;3.67;3.33;;;14.90;76.80;;;;;;5000841;28;20532;-88
2021/09/27 05:17:18;;;;;;;5.32;3.85;;;14.90;76.90;;;;;;5003303;28;20053;-85
2021/09/27 05:19:59;;;;;;;4.65;4.15;;;14.90;76.50;;;;;;5102161;28;20028;-85
2021/09/27 05:22:57;;;;;;;6.43;3.78;;;14.90;76.50;;;;;;5104297;28;20517;-86
2021/09/27 05:25:52;;;;;;;5.95;3.83;;;14.90;76.60;;;;;;5059199;28;20040;-87
2021/09/27 05:29:12;;;;;;;8.10;3.90;;;14.80;76.60;;;;;;5081383;28;20070;-85
2021/09/27 05:31:41;;;;;;;6.85;3.33;;;14.80;76.60;;;;;;4994926;28;20029;-86
2021/09/27 05:34:27;;;;;;;5.90;3.67;;;14.80;76.90;;;;;;5058086;28;20126;-86
2021/09/27 05:37:08;;;;;;;;;;;14.90;77.80;;;;;;5074037;28;20398;-86
2021/09/27 05:39:50;;;;;;;5.97;3.88;;;14.90;78.40;;;;;;5074230;28;19912;-87
2021/09/27 05:42:44;;;;;;;7.30;3.95;;;14.90;78.90;;;;;;5082052;28;20517;-88
2021/09/27 05:45:23;;;;;;;8.45;3.72;;;14.90;78.90;;;;;;5096938;28;20067;-87
2021/09/27 05:48:22;;;;;;;4.72;3.80;;;15.00;79.00;;;;;;5096534;28;20042;-87
2021/09/27 05:50:55;;;;;;;7.68;4.30;;;14.90;79.10;;;;;;5094992;28;20034;-86
2021/09/27 05:53:31;;;;;;;5.95;4.28;;;14.90;79.10;;;;;;5095884;28;20063;-85
2021/09/27 05:56:07;;;;;;;;;;;15.00;79.40;;;;;;5095265;28;20379;-87
2021/09/27 05:58:40;;;;;;;7.50;3.88;;;15.00;79.60;;;;;;5062100;28;20014;-88
2021/09/27 06:01:24;;;;;;;5.53;4.15;;;15.00;79.40;;;;;;5095147;28;20032;-87
2021/09/27 06:04:09;;;;;;;9.27;4.43;;;15.00;79.60;;;;;;5096211;28;20078;-87
2021/09/27 06:06:55;;;;;;;8.05;4.20;;;15.00;79.50;;;;;;5077088;28;20528;-87
2021/09/27 06:09:40;;;;;;;;;;;15.00;79.50;;;;;;5096120;28;20040;-88
2021/09/27 06:12:27;;;;;;;6.75;4.00;;;15.10;79.60;;;;;;5101434;28;19955;-87
2021/09/27 06:15:01;;;;;;;5.00;3.80;;;15.10;79.30;;;;;;5102086;28;20032;-86
2021/09/27 06:17:52;;;;;;;6.07;3.92;;;15.10;79.40;;;;;;5083285;28;20070;-87
2021/09/27 06:20:41;;;;;;;4.88;3.55;;;15.10;79.10;;;;;;5097670;28;20122;-87
2021/09/27 06:23:16;;;;;;;6.13;3.67;;;15.10;79.30;;;;;;5100394;28;20050;-87
2021/09/27 06:25:51;;;;;;;6.63;3.53;;;15.10;79.10;;;;;;5065649;28;20032;-87
2021/09/27 06:28:44;;;;;;;8.00;4.00;;;15.10;79.00;;;;;;5097591;28;20107;-87
2021/09/27 06:31:21;;;;;;;6.95;3.75;;;15.10;78.60;;;;;;5098366;28;20575;-86
2021/09/27 06:33:53;;;;;;;11.52;4.22;;;15.10;78.70;;;;;;5067948;28;20485;-87
2021/09/27 06:36:23;;;;;;;6.90;3.72;;;15.10;78.70;;;;;;5098866;28;20031;-86
2021/09/27 06:38:54;;;;;;;5.97;4.07;;;15.10;78.50;;;;;;5069088;28;20039;-87
2021/09/27 06:41:22;;;;;;;4.32;3.25;;;15.10;78.20;;;;;;5098171;28;20031;-86
2021/09/27 06:43:48;;;;;;;11.10;3.70;;;15.10;78.20;;;;;;5099423;28;20024;-87
2021/09/27 06:46:15;;;;;;;5.00;3.72;;;15.10;78.20;;;;;;5098191;28;20105;-86
2021/09/27 06:48:41;;;;;;;7.20;3.63;;;15.10;78.30;;;;;;5099254;28;20036;-86
2021/09/27 06:51:07;;;;;;;3.70;3.10;;;15.10;78.30;;;;;;5098511;28;20049;-87
2021/09/27 06:53:33;;;;;;;8.60;4.30;;;15.10;78.10;;;;;;5064092;28;20482;-86
2021/09/27 06:56:00;;;;;;;7.05;3.88;;;15.10;78.20;;;;;;5099233;28;20033;-86
2021/09/27 06:58:27;;;;;;;8.35;3.67;;;15.10;78.40;;;;;;5098310;28;20131;-88
2021/09/27 07:00:56;;;;;;;6.25;3.85;;;15.10;78.30;;;;;;5098721;28;20057;-84
2021/09/27 07:03:22;;;;;;;6.97;3.08;;;15.10;78.30;;;;;;5080892;28;20036;-85
2021/09/27 07:05:48;;;;;;;6.28;3.30;;;15.10;78.40;;;;;;5096221;28;20035;-85
2021/09/27 07:08:15;;;;;;;5.60;3.38;;;15.10;78.30;;;;;;5098275;28;20040;-85
2021/09/27 07:10:42;;;;;;;5.45;3.25;;;15.10;78.30;;;;;;5087440;28;20039;-86
2021/09/27 07:13:08;;;;;;;7.43;3.17;;;15.10;78.10;;;;;;5102115;28;20282;-87
2021/09/27 07:15:33;;;;;;;7.25;3.53;;;15.20;78.20;;;;;;5079080;28;20314;-86
2021/09/27 07:17:59;;;;;;;8.25;3.70;;;15.20;78.10;;;;;;5098140;28;20108;-87
2021/09/27 07:20:27;;;;;;;6.05;3.40;;;15.20;78.00;;;;;;5098167;28;20492;-86
2021/09/27 07:22:55;;;;;;;5.45;3.33;;;15.20;77.80;;;;;;5079518;28;20414;-86
2021/09/27 07:25:22;;;;;;;10.13;4.38;;;15.10;77.70;;;;;;5097061;28;20036;-87
2021/09/27 07:27:48;;;;;;;12.10;3.55;;;15.20;77.90;;;;;;5097370;28;20032;-86
2021/09/27 07:30:14;;;;;;;8.73;3.33;;;15.20;77.80;;;;;;5080509;28;20089;-87
2021/09/27 07:32:41;;;;;;;10.10;3.30;;;15.20;77.70;;;;;;5080946;28;20123;-86
2021/09/27 07:35:10;;;;;;;7.68;3.40;;;15.20;77.50;;;;;;5085106;28;20034;-86
2021/09/27 07:37:38;;;;;;;3.92;2.90;;;15.20;77.50;;;;;;5096932;28;20158;-86
2021/09/27 07:40:07;;;;;;;5.40;3.17;;;15.20;77.60;;;;;;5095702;28;20066;-87
2021/09/27 07:42:33;;;;;;;9.85;3.20;;;15.20;77.70;;;;;;5098159;28;20032;-86
2021/09/27 07:44:59;;;;;;;9.15;3.45;;;15.20;77.60;;;;;;5080388;28;20500;-87
2021/09/27 07:47:24;;;;;;;8.93;3.53;;;15.20;77.60;;;;;;5079392;28;20577;-87
2021/09/27 07:49:50;;;;;;;6.38;3.30;;;15.20;77.50;;;;;;5098499;28;20118;-85
2021/09/27 07:52:16;;;;;;;6.25;3.60;;;15.20;77.50;;;;;;5097582;28;20047;-87
2021/09/27 07:54:42;;;;;;;8.23;3.40;;;15.30;77.40;;;;;;5079790;28;20036;-87
2021/09/27 07:57:08;;;;;;;7.10;3.40;;;15.30;77.40;;;;;;5078693;28;20024;-87
2021/09/27 07:59:34;;;;;;;8.10;3.70;;;15.30;77.30;;;;;;5097865;28;20077;-87
2021/09/27 08:02:00;;;;;;;5.28;2.85;;;15.30;77.50;;;;;;5062681;28;20493;-87
2021/09/27 08:04:26;;;;;;;6.70;3.13;;;15.30;77.60;;;;;;5082037;28;20043;-87
2021/09/27 08:06:52;;;;;;;10.35;4.05;;;15.30;77.60;;;;;;5105662;28;20036;-87
2021/09/27 08:09:18;;;;;;;8.88;3.42;;;15.30;77.60;;;;;;5106868;28;20032;-89
2021/09/27 08:11:44;;;;;;;8.50;2.92;;;15.30;77.70;;;;;;5096985;28;20028;-89
2021/09/27 08:14:11;;;;;;;6.10;3.15;;;15.30;77.50;;;;;;5098514;28;20039;-88
2021/09/27 08:16:37;;;;;;;10.68;3.17;;;15.30;77.30;;;;;;5096954;28;20384;-87
2021/09/27 08:19:04;;;;;;;10.57;3.65;;;15.30;77.30;;;;;;5096227;28;20039;-87
2021/09/27 08:21:30;;;;;;;9.40;3.33;;;15.30;77.60;;;;;;5067745;28;20031;-87
2021/09/27 08:23:58;;;;;;;10.65;3.20;;;15.30;77.70;;;;;;5079994;28;20036;-86
2021/09/27 08:26:24;;;;;;;4.65;2.75;;;15.30;77.70;;;;;;5053168;28;20481;-88
2021/09/27 08:28:53;;;;;;;14.52;3.78;;;15.30;77.70;;;;;;5062916;28;20043;-86
2021/09/27 08:31:29;;;;;;;8.45;3.17;;;15.30;77.30;;;;;;5079875;28;20028;-87
2021/09/27 08:34:00;;;;;;;9.07;2.90;;;15.30;77.10;;;;;;5096232;28;20042;-86
2021/09/27 08:36:36;;;;;;;8.77;3.45;;;15.30;77.30;;;;;;5079771;28;20124;-86
2021/09/27 08:39:05;;;;;;;11.60;2.75;;;15.40;77.20;;;;;;5068069;28;20488;-87
2021/09/27 08:41:35;;;;;;;11.88;3.38;;;15.30;77.10;;;;;;5062291;28;20422;-86
2021/09/27 08:44:04;;;;;;;12.40;3.20;;;15.30;77.20;;;;;;5080661;28;20654;-87
2021/09/27 08:46:33;;;;;;;13.70;3.05;;;15.30;77.20;;;;;;5050518;28;20023;-87
2021/09/27 08:49:21;;;;;;;21.15;9.80;;;15.30;77.10;;;;;;5078504;28;20032;-87
2021/09/27 08:51:47;;;;;;;14.88;5.25;;;15.30;77.30;;;;;;5050028;28;20038;-87
2021/09/27 08:54:24;;;;;;;10.18;3.80;;;15.30;77.00;;;;;;5078762;28;20038;-87
2021/09/27 08:57:09;;;;;;;10.35;3.63;;;15.30;76.80;;;;;;5078117;28;20552;-87
2021/09/27 08:59:55;;;;;;;11.90;4.32;;;15.30;76.70;;;;;;5096535;28;20043;-88
2021/09/27 09:02:36;;;;;;;11.00;3.58;;;15.30;76.40;;;;;;5067783;28;20110;-87
2021/09/27 09:05:08;;;;;;;9.07;3.40;;;15.30;76.40;;;;;;5052871;28;20063;-86
2021/09/27 09:07:51;;;;;;;13.68;3.20;;;15.30;76.70;;;;;;5092142;28;20052;-86
2021/09/27 09:10:40;;;;;;;13.45;3.17;;;15.30;76.80;;;;;;5097097;28;20035;-85
2021/09/27 09:13:29;;;;;;;16.95;3.65;;;15.30;78.30;;;;;;5065527;28;20040;-84
2021/09/27 09:16:26;;;;;;;12.13;3.20;;;15.40;80.20;;;;;;5049458;28;20052;-86
2021/09/27 09:19:07;;;;;;;11.10;3.42;;;15.50;79.90;;;;;;5066488;28;20032;-85
2021/09/27 09:22:09;;;;;;;10.77;3.30;;;15.50;78.90;;;;;;5074934;28;20529;-86
2021/09/27 09:24:40;;;;;;;15.00;3.45;;;15.50;78.10;;;;;;5060669;28;20028;-85
2021/09/27 09:27:31;;;;;;;;;;;;;;;;;;;;;
2021/09/27 09:30:06;;;;;;;11.48;3.40;;;15.50;77.40;;;;;;5096534;28;20486;-86
2021/09/27 09:32:34;;;;;;;9.90;3.13;;;15.50;77.10;;;;;;5078118;28;20114;-85
2021/09/27 09:35:27;;;;;;;15.85;3.88;;;15.50;77.00;;;;;;5095669;28;20057;-86
2021/09/27 09:38:10;;;;;;;11.55;3.25;;;15.50;77.10;;;;;;5054512;28;20034;-86
2021/09/27 09:40:51;;;;;;;10.85;2.97;;;15.50;76.90;;;;;;5059828;28;20032;-86
2021/09/27 09:43:41;;;;;;;10.63;3.13;;;15.50;77.40;;;;;;5094617;28;20104;-85
2021/09/27 09:46:41;;;;;;;;;;;;;;;;;;;;;
2021/09/27 09:49:12;;;;;;;11.57;3.92;;;15.50;76.80;;;;;;5095735;28;20066;-86
2021/09/27 09:52:03;;;;;;;13.75;4.15;;;15.50;77.30;;;;;;5062384;28;20028;-86
2021/09/27 09:54:47;;;;;;;15.93;3.22;;;15.50;76.60;;;;;;5095531;28;20024;-85
2021/09/27 09:57:37;;;;;;;10.93;3.50;;;15.40;76.70;;;;;;5111355;28;20024;-85
2021/09/27 10:00:32;;;;;;;14.52;3.67;;;15.40;76.90;;;;;;5095276;28;20192;-85
2021/09/27 10:03:09;;;;;;;13.63;3.60;;;15.40;76.80;;;;;;5094520;28;20031;-87
2021/09/27 10:05:55;;;;;;;12.77;3.45;;;15.40;76.80;;;;;;5078095;28;20043;-85
2021/09/27 10:08:24;;;;;;;15.32;3.78;;;15.40;76.60;;;;;;5065543;28;20032;-86
2021/09/27 10:10:56;;;;;;;9.65;3.58;;;15.40;76.40;;;;;;5064466;28;20062;-87
2021/09/27 10:13:36;;;;;;;14.43;3.95;;;15.40;76.40;;;;;;5047519;28;20047;-86
2021/09/27 10:16:11;;;;;;;16.02;4.28;;;15.40;76.20;;;;;;5091321;28;20048;-87
2021/09/27 10:18:39;;;;;;;;;;;15.40;76.00;;;;;;5081472;28;20036;-86
2021/09/27 10:21:28;;;;;;;14.43;3.80;;;15.40;76.10;;;;;;5078619;28;19919;-85
2021/09/27 10:24:17;;;;;;;11.50;3.72;;;15.40;76.00;;;;;;5067325;28;20441;-87
2021/09/27 10:26:49;;;;;;;10.68;3.70;;;15.40;75.70;;;;;;5103866;28;20036;-87
2021/09/27 10:29:23;;;;;;;19.10;4.15;;;15.40;75.80;;;;;;5095407;28;20509;-87
2021/09/27 10:31:57;;;;;;;21.10;3.80;;;15.40;75.80;;;;;;5061610;28;20024;-87
2021/09/27 10:34:26;;;;;;;15.18;3.90;;;15.40;76.00;;;;;;5072492;28;20520;-87
2021/09/27 10:36:58;;;;;;;13.18;3.60;;;15.40;75.90;;;;;;5096684;28;20043;-86
2021/09/27 10:39:25;;;;;;;17.38;3.95;;;15.50;76.00;;;;;;5065077;28;20070;-87
2021/09/27 10:42:01;;;;;;;18.25;4.38;;;15.50;75.90;;;;;;5086818;28;20048;-86
2021/09/27 10:44:35;;;;;;;18.42;4.30;;;15.50;76.00;;;;;;5071002;28;20079;-86
2021/09/27 10:47:20;;;;;;;16.33;4.70;;;15.50;76.20;;;;;;5091147;28;20472;-86
2021/09/27 10:50:14;;;;;;;16.60;3.50;;;15.50;77.00;;;;;;5066789;28;20228;-87
2021/09/27 10:52:45;;;;;;;14.82;4.22;;;15.50;76.20;;;;;;5079109;28;20059;-86
2021/09/27 10:55:16;;;;;;;12.15;3.78;;;15.60;76.00;;;;;;5082201;28;20036;-86
2021/09/27 10:58:04;;;;;;;11.77;3.28;;;15.60;76.30;;;;;;5100750;28;20036;-87
2021/09/27 11:00:37;;;;;;;8.98;4.22;;;15.60;76.20;;;;;;5100624;28;20175;-86
2021/09/27 11:03:20;;;;;;;16.98;4.05;;;15.60;76.00;;;;;;5097982;28;20035;-88
2021/09/27 11:05:47;;;;;;;11.55;4.30;;;15.60;75.90;;;;;;5062688;28;20031;-87
2021/09/27 11:08:16;;;;;;;13.40;3.50;;;15.50;75.70;;;;;;5099781;28;20039;-87
2021/09/27 11:10:48;;;;;;;14.07;3.83;;;15.60;75.30;;;;;;5099670;28;20040;-87
2021/09/27 11:13:37;;;;;;;13.40;4.78;;;15.50;74.90;;;;;;5098801;28;20115;-87
2021/09/27 11:16:16;;;;;;;13.30;4.28;;;15.50;75.00;;;;;;5096717;28;20640;-86
2021/09/27 11:18:54;;;;;;;10.75;3.88;;;15.50;75.30;;;;;;5098757;28;20057;-86
2021/09/27 11:21:23;;;;;;;15.60;4.25;;;15.50;75.40;;;;;;5076132;28;20055;-89
2021/09/27 11:24:23;;;;;;;11.68;3.85;;;15.50;75.40;;;;;;5097864;28;20063;-87
2021/09/27 11:27:18;;;;;;;14.73;4.30;;;15.50;75.80;;;;;;4995357;28;20505;-86
2021/09/27 11:29:46;;;;;;;9.75;4.28;;;15.50;75.90;;;;;;4981295;28;20070;-86
2021/09/27 11:32:28;;;;;;;12.45;3.78;;;15.50;75.70;;;;;;5069579;28;20040;-87
2021/09/27 11:34:53;;;;;;;13.38;3.88;;;15.40;75.70;;;;;;5074088;28;20036;-87
2021/09/27 11:37:28;;;;;;;11.23;4.43;;;15.40;76.40;;;;;;5070303;28;20032;-86
2021/09/27 11:40:17;;;;;;;14.65;4.10;;;15.40;75.80;;;;;;5076463;28;20111;-86
2021/09/27 11:42:43;;;;;;;15.07;4.10;;;15.40;76.00;;;;;;5101000;28;20093;-85
2021/09/27 11:45:23;;;;;;;9.25;4.30;;;15.40;76.00;;;;;;5114742;28;20051;-86
2021/09/27 11:48:10;;;;;;;14.23;4.63;;;15.50;75.90;;;;;;5080955;28;20034;-86
2021/09/27 11:50:48;;;;;;;11.05;4.22;;;15.50;75.90;;;;;;5100424;28;20028;-86
2021/09/27 11:53:23;;;;;;;14.82;4.50;;;15.50;76.10;;;;;;5114101;28;20031;-86
2021/09/27 11:56:10;;;;;;;7.93;3.72;;;15.50;76.20;;;;;;5063566;28;20040;-86
2021/09/27 11:58:48;;;;;;;14.05;4.35;;;15.50;76.30;;;;;;5090706;28;20036;-86
2021/09/27 12:01:38;;;;;;;9.38;4.20;;;15.50;76.20;;;;;;5095096;28;20044;-86
2021/09/27 12:04:39;;;;;;;13.07;4.30;;;15.50;76.30;;;;;;5101683;28;20083;-86
2021/09/27 12:07:11;;;;;;;9.63;4.00;;;15.50;76.30;;;;;;5024782;28;20065;-87
2021/09/27 12:10:18;;;;;;;12.15;4.28;;;15.50;76.00;;;;;;4994408;28;20408;-85
2021/09/27 12:13:15;;;;;;;11.18;4.25;;;15.50;75.90;;;;;;5069729;28;20040;-87
2021/09/27 12:15:43;;;;;;;;;;;15.50;75.60;;;;;;5078272;28;20046;-86
2021/09/27 12:18:35;;;;;;;13.32;4.32;;;15.60;75.50;;;;;;5057740;28;19959;-85
2021/09/27 12:21:10;;;;;;;10.55;3.90;;;15.60;75.20;;;;;;5093237;28;20035;-87
2021/09/27 12:23:46;;;;;;;9.38;4.22;;;15.60;75.20;;;;;;5093119;28;20075;-87
2021/09/27 12:26:26;;;;;;;10.90;3.92;;;15.50;75.30;;;;;;5096894;28;20439;-86
2021/09/27 12:29:06;;;;;;;9.70;4.35;;;15.60;75.40;;;;;;5065786;28;20075;-87
2021/09/27 12:31:32;;;;;;;9.65;4.32;;;15.50;75.30;;;;;;5095874;28;20028;-86
2021/09/27 12:34:14;;;;;;;10.70;4.97;;;15.50;75.30;;;;;;5095873;28;20090;-86
2021/09/27 12:36:43;;;;;;;12.25;4.72;;;15.60;75.20;;;;;;5092886;28;20165;-86
2021/09/27 12:39:09;;;;;;;13.05;3.97;;;15.60;75.10;;;;;;5094012;28;20035;-87
2021/09/27 12:41:38;;;;;;;12.07;4.40;;;15.60;74.70;;;;;;5110969;28;20035;-87
2021/09/27 12:44:17;;;;;;;14.57;4.30;;;15.60;74.50;;;;;;5095252;28;20028;-88
2021/09/27 12:46:50;;;;;;;8.43;4.07;;;15.60;74.60;;;;;;5086724;28;20099;-89
2021/09/27 12:49:26;;;;;;;10.40;3.95;;;15.60;75.00;;;;;;5107379;28;20035;-86
2021/09/27 12:51:55;;;;;;;12.20;4.38;;;15.60;75.10;;;;;;5101489;28;20034;-87
2021/09/27 12:54:43;;;;;;;12.13;5.10;;;15.60;75.00;;;;;;5095569;28;20496;-87
2021/09/27 12:57:29;;;;;;;10.38;4.07;;;15.60;74.90;;;;;;5097440;28;20036;-87
2021/09/27 12:59:58;;;;;;;11.57;4.40;;;15.60;74.50;;;;;;5077561;28;20054;-86
2021/09/27 13:02:28;;;;;;;14.48;4.40;;;15.60;74.30;;;;;;5074109;28;20024;-88
2021/09/27 13:05:22;;;;;;;15.93;4.40;;;15.60;74.30;;;;;;5094171;28;20027;-87
2021/09/27 13:07:59;;;;;;;13.25;4.15;;;15.60;74.30;;;;;;5105109;28;20034;-87
2021/09/27 13:10:47;;;;;;;10.05;4.55;;;15.60;73.80;;;;;;5094126;28;20038;-88
2021/09/27 13:13:28;;;;;;;12.90;4.75;;;15.60;73.80;;;;;;5078871;28;20451;-87
2021/09/27 13:15:56;;;;;;;12.10;4.25;;;15.60;74.00;;;;;;5094220;28;20135;-87
2021/09/27 13:18:24;;;;;;;12.48;4.18;;;15.60;73.90;;;;;;5073603;28;20044;-87
2021/09/27 13:20:52;;;;;;;7.72;4.03;;;15.60;74.20;;;;;;5089337;28;20036;-87
2021/09/27 13:23:24;;;;;;;13.55;4.78;;;15.50;74.20;;;;;;5091984;28;20411;-85
2021/09/27 13:26:00;;;;;;;9.50;4.43;;;15.50;74.70;;;;;;5076232;28;20426;-88
2021/09/27 13:28:51;;;;;;;11.70;5.07;;;15.60;74.20;;;;;;5061767;28;20527;-86
2021/09/27 13:31:24;;;;;;;11.43;4.65;;;15.50;74.20;;;;;;5084389;28;20024;-86
2021/09/27 13:33:56;;;;;;;13.25;5.78;;;15.50;74.30;;;;;;5077557;28;20031;-85
2021/09/27 13:36:31;;;;;;;8.45;4.80;;;15.50;74.40;;;;;;5093272;28;20534;-86
2021/09/27 13:39:09;;;;;;;15.70;4.55;;;15.50;74.30;;;;;;5077715;28;20027;-86
2021/09/27 13:41:52;;;;;;;12.88;4.88;;;15.50;74.20;;;;;;5096393;28;20092;-85
2021/09/27 13:44:50;;;;;;;13.57;4.45;;;15.50;74.10;;;;;;5096121;28;20438;-84